createdAt,value
2023-03-14T00:01:30.074Z,18.29
2023-03-14T00:04:31.129Z,18.19
2023-03-14T00:07:21.455Z,18.14
2023-03-14T00:09:57.786Z,18.12
2023-03-14T00:12:30.439Z,17.95
2023-03-14T00:15:30.195Z,18.24
2023-03-14T00:18:03.193Z,18.17
2023-03-14T00:25:48.496Z,18.27
2023-03-14T00:28:39.844Z,18.18
2023-03-14T00:31:33.571Z,18.23
2023-03-14T00:34:06.286Z,17.92
2023-03-14T00:39:32.670Z,17.92
2023-03-14T00:42:29.938Z,17.94
2023-03-14T00:45:09.935Z,18.05
2023-03-14T00:48:07.222Z,17.98
2023-03-14T00:50:40.673Z,18.00
2023-03-14T00:53:17.129Z,17.97
2023-03-14T00:56:30.054Z,17.95
2023-03-14T00:59:03.890Z,17.99
2023-03-14T01:02:30.162Z,18.01
2023-03-14T01:05:02.896Z,17.97
2023-03-14T01:07:36.010Z,18.05
2023-03-14T01:10:23.645Z,18.01
2023-03-14T01:13:17.294Z,17.98
2023-03-14T01:15:49.969Z,17.97
2023-03-14T01:18:22.664Z,17.85
2023-03-14T01:21:19.939Z,18.02
2023-03-14T01:26:58.841Z,17.87
2023-03-14T01:32:27.627Z,17.92
2023-03-14T01:35:01.272Z,17.85
2023-03-14T01:37:38.913Z,18.00
2023-03-14T01:40:12.842Z,17.88
2023-03-14T01:47:02.681Z,18.09
2023-03-14T01:49:37.176Z,17.76
2023-03-14T01:52:38.033Z,17.85
2023-03-14T01:55:41.724Z,17.84
2023-03-14T01:58:52.825Z,18.06
2023-03-14T02:01:27.429Z,17.83
2023-03-14T02:04:24.562Z,17.89
2023-03-14T02:07:33.382Z,17.91
2023-03-14T02:10:31.676Z,17.83
2023-03-14T02:13:06.904Z,17.87
2023-03-14T02:16:03.320Z,17.86
2023-03-14T02:18:36.438Z,17.81
2023-03-14T02:22:06.729Z,18.02
2023-03-14T02:25:05.431Z,17.88
2023-03-14T02:27:39.265Z,17.79
2023-03-14T02:30:38.125Z,18.01
2023-03-14T02:34:04.402Z,18.03
2023-03-14T02:36:37.235Z,17.79
2023-03-14T02:40:08.090Z,17.99
2023-03-14T02:42:40.786Z,17.67
2023-03-14T02:46:06.369Z,17.98
2023-03-14T02:49:17.697Z,17.99
2023-03-14T02:51:51.257Z,17.81
2023-03-14T02:54:47.125Z,17.96
2023-03-14T02:58:02.813Z,17.81
2023-03-14T03:04:13.291Z,17.98
2023-03-14T03:08:13.814Z,17.98
2023-03-14T03:10:50.699Z,17.62
2023-03-14T03:13:26.734Z,17.81
2023-03-14T03:16:21.345Z,17.94
2023-03-14T03:19:15.091Z,17.86
2023-03-14T03:22:13.845Z,17.71
2023-03-14T03:24:50.218Z,17.65
2023-03-14T03:30:35.156Z,17.89
2023-03-14T03:33:08.537Z,17.61
2023-03-14T03:35:52.262Z,17.74
2023-03-14T03:38:25.013Z,17.84
2023-03-14T03:40:58.683Z,17.57
2023-03-14T03:43:31.411Z,17.70
2023-03-14T03:46:06.733Z,17.81
2023-03-14T03:48:39.612Z,17.67
2023-03-14T03:51:33.157Z,17.81
2023-03-14T03:54:06.011Z,17.80
2023-03-14T03:56:38.614Z,17.71
2023-03-14T03:59:20.483Z,17.70
2023-03-14T04:02:11.573Z,17.85
2023-03-14T04:04:44.466Z,17.70
2023-03-14T04:07:19.607Z,17.64
2023-03-14T04:09:57.805Z,17.73
2023-03-14T04:12:30.525Z,17.63
2023-03-14T04:15:03.326Z,17.54
2023-03-14T04:17:36.120Z,17.68
2023-03-14T04:20:11.888Z,17.70
2023-03-14T04:23:06.659Z,17.83
2023-03-14T04:25:39.483Z,17.58
2023-03-14T04:28:15.866Z,17.76
2023-03-14T04:30:48.721Z,17.57
2023-03-14T04:33:22.416Z,17.63
2023-03-14T04:35:59.877Z,17.73
2023-03-14T04:39:14.112Z,17.57
2023-03-14T04:41:49.326Z,17.62
2023-03-14T04:44:21.978Z,17.51
2023-03-14T04:47:16.408Z,17.80
2023-03-14T04:49:49.429Z,17.71
2023-03-14T04:52:22.117Z,17.62
2023-03-14T04:55:16.221Z,17.65
2023-03-14T04:57:48.901Z,17.64
2023-03-14T05:00:21.687Z,17.48
2023-03-14T05:03:10.442Z,17.66
2023-03-14T05:05:43.549Z,17.50
2023-03-14T05:08:16.240Z,17.50
2023-03-14T05:11:13.994Z,17.77
2023-03-14T05:13:47.971Z,17.58
2023-03-14T05:16:20.803Z,17.59
2023-03-14T05:18:56.659Z,17.48
2023-03-14T05:21:51.934Z,17.52
2023-03-14T05:24:24.940Z,17.53
2023-03-14T05:26:57.588Z,17.44
2023-03-14T05:29:30.534Z,17.57
2023-03-14T05:32:03.396Z,17.54
2023-03-14T05:34:48.009Z,17.58
2023-03-14T05:37:20.779Z,17.54
2023-03-14T05:40:01.863Z,17.56
2023-03-14T05:42:36.826Z,17.42
2023-03-14T05:45:10.059Z,17.44
2023-03-14T05:47:42.711Z,17.52
2023-03-14T05:50:41.135Z,17.43
2023-03-14T05:53:16.750Z,17.48
2023-03-14T05:56:08.907Z,17.67
2023-03-14T05:58:46.854Z,17.51
2023-03-14T06:01:19.497Z,17.46
2023-03-14T06:03:53.189Z,17.45
2023-03-14T06:06:47.249Z,17.67
2023-03-14T06:09:21.187Z,17.60
2023-03-14T06:11:53.912Z,17.58
2023-03-14T06:14:26.566Z,17.38
2023-03-14T06:17:22.484Z,17.57
2023-03-14T06:20:03.764Z,17.47
2023-03-14T06:22:36.417Z,17.44
2023-03-14T06:25:10.646Z,17.49
2023-03-14T06:27:46.060Z,17.83
2023-03-14T06:30:19.008Z,17.39
2023-03-14T06:32:51.796Z,17.51
2023-03-14T06:38:22.346Z,17.59
2023-03-14T06:40:57.359Z,17.50
2023-03-14T06:43:32.521Z,17.47
2023-03-14T06:46:27.433Z,17.70
2023-03-14T06:49:00.192Z,17.55
2023-03-14T06:54:35.015Z,17.61
2023-03-14T06:57:08.119Z,17.82
2023-03-14T06:59:43.490Z,17.75
2023-03-14T07:02:20.276Z,17.73
2023-03-14T07:04:54.289Z,17.97
2023-03-14T07:08:00.616Z,17.89
2023-03-14T07:10:30.559Z,18.11
2023-03-14T07:13:15.614Z,18.14
2023-03-14T07:15:48.347Z,18.17
2023-03-14T07:18:27.085Z,18.12
2023-03-14T07:21:02.028Z,18.31
2023-03-14T07:23:43.543Z,18.40
2023-03-14T07:26:18.782Z,18.40
2023-03-14T07:28:51.942Z,18.58
2023-03-14T07:31:25.696Z,18.45
2023-03-14T07:34:13.007Z,18.62
2023-03-14T07:36:51.524Z,18.58
2023-03-14T07:39:30.329Z,18.67
2023-03-14T07:42:07.168Z,18.71
2023-03-14T07:44:46.281Z,18.61
2023-03-14T07:47:20.908Z,18.67
2023-03-14T07:49:56.242Z,18.69
2023-03-14T07:52:29.410Z,18.83
2023-03-14T07:55:02.045Z,18.85
2023-03-14T07:57:37.002Z,18.85
2023-03-14T08:00:15.869Z,18.94
2023-03-14T08:02:48.881Z,18.78
2023-03-14T08:05:27.441Z,18.81
2023-03-14T08:08:00.162Z,19.04
2023-03-14T08:10:43.505Z,18.98
2023-03-14T08:13:26.566Z,19.04
2023-03-14T08:16:11.366Z,19.14
2023-03-14T08:19:07.662Z,19.05
2023-03-14T08:21:47.889Z,19.12
2023-03-14T08:24:42.115Z,19.20
2023-03-14T08:27:15.959Z,19.02
2023-03-14T08:30:00.771Z,19.22
2023-03-14T08:32:33.649Z,19.25
2023-03-14T08:35:07.591Z,19.25
2023-03-14T08:37:40.248Z,19.30
2023-03-14T08:40:27.477Z,19.38
2023-03-14T08:43:12.079Z,19.23
2023-03-14T08:46:02.075Z,19.30
2023-03-14T08:48:49.905Z,19.22
2023-03-14T08:51:40.924Z,19.37
2023-03-14T08:54:26.719Z,19.39
2023-03-14T08:56:59.258Z,19.35
2023-03-14T08:59:48.587Z,19.45
2023-03-14T09:02:33.754Z,19.49
2023-03-14T09:05:07.319Z,19.44
2023-03-14T09:07:52.098Z,19.37
2023-03-14T09:10:30.952Z,19.29
2023-03-14T09:13:06.578Z,19.41
2023-03-14T09:15:41.621Z,19.18
2023-03-14T09:18:16.449Z,19.18
2023-03-14T09:20:56.122Z,19.20
2023-03-14T09:23:38.125Z,19.22
2023-03-14T09:26:15.717Z,19.37
2023-03-14T09:29:03.029Z,19.33
2023-03-14T09:31:36.472Z,19.19
2023-03-14T09:34:15.342Z,19.32
2023-03-14T09:36:54.853Z,19.19
2023-03-14T09:39:31.194Z,19.20
2023-03-14T09:42:13.894Z,19.15
2023-03-14T09:45:53.511Z,19.28
2023-03-14T09:49:03.787Z,19.34
2023-03-14T09:51:58.403Z,19.08
2023-03-14T09:54:43.940Z,18.97
2023-03-14T09:57:25.528Z,19.00
2023-03-14T10:00:19.222Z,19.04
2023-03-14T10:03:00.776Z,18.89
2023-03-14T10:05:42.012Z,18.83
2023-03-14T10:08:15.599Z,18.66
2023-03-14T10:10:55.845Z,18.67
2023-03-14T10:14:17.968Z,18.89
2023-03-14T10:17:12.860Z,18.86
2023-03-14T10:23:21.293Z,18.58
2023-03-14T10:26:38.499Z,18.79
2023-03-14T10:29:17.305Z,18.55
2023-03-14T10:32:20.466Z,18.55
2023-03-14T10:35:34.547Z,18.56
2023-03-14T10:38:35.595Z,18.76
2023-03-14T10:41:40.811Z,18.51
2023-03-14T10:44:31.486Z,18.53
2023-03-14T10:47:27.197Z,18.60
2023-03-14T10:50:49.988Z,18.58
2023-03-14T10:54:13.776Z,18.48
2023-03-14T10:56:38.889Z,18.32
2023-03-14T10:59:20.710Z,18.31
2023-03-14T11:02:48.924Z,18.52
2023-03-14T11:06:07.773Z,18.50
2023-03-14T11:09:26.329Z,18.49
2023-03-14T11:15:33.071Z,18.51
2023-03-14T11:19:11.033Z,18.26
2023-03-14T11:22:37.003Z,18.48
2023-03-14T11:25:55.345Z,18.47
2023-03-14T11:28:58.104Z,18.32
2023-03-14T11:31:36.418Z,18.16
2023-03-14T11:34:50.539Z,18.23
2023-03-14T11:38:57.682Z,18.42
2023-03-14T11:41:44.922Z,18.09
2023-03-14T11:44:44.896Z,18.24
2023-03-14T11:47:30.801Z,18.24
2023-03-14T11:50:39.439Z,18.17
2023-03-14T11:54:08.396Z,18.28
2023-03-14T12:03:51.707Z,18.21
2023-03-14T12:10:49.687Z,18.31
2023-03-14T12:24:01.698Z,18.38
2023-03-14T13:05:51.591Z,18.00
2023-03-14T13:08:44.257Z,18.04
2023-03-14T13:11:37.853Z,18.30
2023-03-14T13:14:15.212Z,18.19
2023-03-14T13:17:33.337Z,18.07
2023-03-14T13:20:47.271Z,18.32
2023-03-14T13:23:38.123Z,18.18
2023-03-14T13:26:19.681Z,18.20
2023-03-14T13:54:31.973Z,18.80
2023-03-14T13:58:02.614Z,18.68
2023-03-14T14:01:57.132Z,18.85
2023-03-14T15:01:12.316Z,18.87
2023-03-14T16:14:20.513Z,18.24
2023-03-14T16:22:04.998Z,18.17
2023-03-14T16:24:40.673Z,18.08
2023-03-14T16:53:41.331Z,17.87
2023-03-14T17:08:00.681Z,17.94
2023-03-14T17:14:30.304Z,18.07
2023-03-14T17:21:36.540Z,17.91
2023-03-14T17:24:34.669Z,18.24
2023-03-14T17:30:59.288Z,18.29
2023-03-14T17:33:29.433Z,18.26
2023-03-14T17:36:02.980Z,18.12
2023-03-14T17:38:46.512Z,18.29
2023-03-14T17:41:51.464Z,18.23
2023-03-14T17:50:23.987Z,18.46
2023-03-14T17:53:05.852Z,18.29
2023-03-14T17:55:45.183Z,18.43
2023-03-14T17:58:21.717Z,18.37
2023-03-14T18:00:55.851Z,18.39
2023-03-14T18:03:34.273Z,18.73
2023-03-14T18:06:10.329Z,18.45
2023-03-14T18:11:48.402Z,18.32
2023-03-14T18:14:22.500Z,18.41
2023-03-14T18:20:12.919Z,18.35
2023-03-14T18:22:56.230Z,18.44
2023-03-14T18:25:31.602Z,18.42
2023-03-14T18:28:08.236Z,18.44
2023-03-14T18:37:30.026Z,18.48
2023-03-14T18:40:36.859Z,18.37
2023-03-14T18:43:10.919Z,18.39
2023-03-14T18:45:49.726Z,18.23
2023-03-14T18:48:25.127Z,18.30
2023-03-14T18:50:59.773Z,18.23
2023-03-14T18:54:08.478Z,18.40
2023-03-14T18:56:51.832Z,18.29
2023-03-14T18:59:33.606Z,18.31
2023-03-14T19:04:54.317Z,18.20
2023-03-14T19:07:27.142Z,18.26
2023-03-14T19:10:01.211Z,18.27
2023-03-14T19:12:33.803Z,18.57
2023-03-14T19:15:24.583Z,18.41
2023-03-14T19:17:57.229Z,18.16
2023-03-14T19:20:30.946Z,18.22
2023-03-14T19:23:03.840Z,18.18
2023-03-14T19:25:36.467Z,18.17
2023-03-14T19:28:09.428Z,18.05
2023-03-14T19:30:52.270Z,18.19
2023-03-14T19:33:26.961Z,18.19
2023-03-14T19:35:59.929Z,18.03
2023-03-14T19:38:32.553Z,18.10
2023-03-14T19:41:17.909Z,18.10
2023-03-14T19:43:51.564Z,18.09
2023-03-14T19:46:36.506Z,17.97
2023-03-14T19:49:28.453Z,18.21
2023-03-14T19:52:01.594Z,17.90
2023-03-14T19:54:43.468Z,18.13
2023-03-14T19:57:17.959Z,17.96
2023-03-14T19:59:55.829Z,18.01
2023-03-14T20:02:38.430Z,17.91
2023-03-14T20:05:14.546Z,17.98
2023-03-14T20:07:48.148Z,18.01
2023-03-14T20:10:41.689Z,17.91
2023-03-14T20:13:22.441Z,17.94
2023-03-14T20:18:54.389Z,18.05
2023-03-14T20:21:27.448Z,17.83
2023-03-14T20:24:00.441Z,17.82
2023-03-14T20:26:35.044Z,17.96
2023-03-14T20:29:10.908Z,17.73
2023-03-14T20:31:56.121Z,17.86
2023-03-14T20:34:32.297Z,17.92
2023-03-14T20:37:19.872Z,17.76
2023-03-14T20:39:52.570Z,17.79
2023-03-14T20:42:36.268Z,17.89
2023-03-14T20:45:09.316Z,17.80
2023-03-14T20:47:42.243Z,17.86
2023-03-14T20:50:21.121Z,17.79
2023-03-14T20:52:54.014Z,17.81
2023-03-14T20:55:42.157Z,17.71
2023-03-14T20:58:21.117Z,17.66
2023-03-14T21:00:57.177Z,17.78
2023-03-14T21:03:43.319Z,17.67
2023-03-14T21:06:15.913Z,17.65
2023-03-14T21:08:54.138Z,17.70
2023-03-14T21:11:48.660Z,17.71
2023-03-14T21:14:23.321Z,17.52
2023-03-14T21:17:04.199Z,17.76
2023-03-14T21:19:36.878Z,17.60
2023-03-14T21:22:21.173Z,17.70
2023-03-14T21:24:59.772Z,17.69
2023-03-14T21:27:53.015Z,17.49
2023-03-14T21:30:38.641Z,17.52
2023-03-14T21:33:11.393Z,17.56
2023-03-14T21:35:44.149Z,17.62
2023-03-14T21:38:22.811Z,17.43
2023-03-14T21:41:12.388Z,17.55
2023-03-14T21:43:47.926Z,17.47
2023-03-14T21:47:34.406Z,17.64
2023-03-14T21:50:10.618Z,17.80
2023-03-14T21:53:00.902Z,17.49
2023-03-14T21:55:33.672Z,17.29
2023-03-14T21:58:17.833Z,17.32
2023-03-14T22:00:55.079Z,17.40
2023-03-14T22:03:28.051Z,17.43
2023-03-14T22:06:04.440Z,17.34
2023-03-14T22:08:44.779Z,17.42
2023-03-14T22:11:18.605Z,17.19
2023-03-14T22:14:01.447Z,17.28
2023-03-14T22:16:34.164Z,17.17
2023-03-14T22:19:06.962Z,17.24
2023-03-14T22:21:39.622Z,17.30
2023-03-14T22:24:15.608Z,17.19
2023-03-14T22:26:57.867Z,17.32
2023-03-14T22:32:18.292Z,17.31
2023-03-14T22:38:56.350Z,17.69
2023-03-14T22:41:33.719Z,17.64
2023-03-14T22:44:06.421Z,17.48
2023-03-14T22:46:47.526Z,17.56
2023-03-14T22:49:23.496Z,17.50
2023-03-14T22:51:56.184Z,17.64
2023-03-14T22:54:34.449Z,17.53
2023-03-14T22:57:07.333Z,17.60
2023-03-14T22:59:54.255Z,17.79
2023-03-14T23:02:27.024Z,17.54
2023-03-14T23:08:06.826Z,17.55
2023-03-14T23:10:40.598Z,17.77
2023-03-14T23:13:22.007Z,17.81
2023-03-14T23:15:54.698Z,17.77
2023-03-14T23:18:33.327Z,17.73
2023-03-14T23:36:04.139Z,17.84
2023-03-14T23:41:15.491Z,17.65
2023-03-14T23:43:53.730Z,17.65
2023-03-14T23:46:31.670Z,17.63
2023-03-14T23:49:09.868Z,17.56
2023-03-14T23:51:42.642Z,17.49
2023-03-14T23:54:21.519Z,17.47
2023-03-14T23:56:54.656Z,17.66
2023-03-14T23:59:27.783Z,17.66
